createdAt,value
2023-01-22T00:00:19.870Z,2.50
2023-01-22T00:02:49.235Z,2.50
2023-01-22T00:05:16.668Z,2.50
2023-01-22T00:07:44.135Z,2.50
2023-01-22T00:10:12.097Z,2.50
2023-01-22T00:12:41.060Z,2.50
2023-01-22T00:15:08.756Z,3.20
2023-01-22T00:17:35.932Z,2.50
2023-01-22T00:20:03.153Z,2.50
2023-01-22T00:22:39.265Z,2.50
2023-01-22T00:25:07.641Z,2.50
2023-01-22T00:27:34.725Z,2.50
2023-01-22T00:30:01.819Z,2.50
2023-01-22T00:32:32.517Z,2.50
2023-01-22T00:34:59.700Z,2.50
2023-01-22T00:37:27.386Z,2.50
2023-01-22T00:39:57.429Z,2.50
2023-01-22T00:42:27.802Z,2.50
2023-01-22T00:44:55.036Z,2.30
2023-01-22T00:47:22.330Z,2.50
2023-01-22T00:49:49.567Z,2.50
2023-01-22T00:52:17.915Z,2.00
2023-01-22T00:54:48.563Z,2.50
2023-01-22T00:57:16.311Z,2.50
2023-01-22T00:59:43.489Z,1.80
2023-01-22T01:02:10.807Z,2.50
2023-01-22T01:04:38.790Z,2.50
2023-01-22T01:07:15.631Z,2.50
2023-01-22T01:09:46.224Z,2.50
2023-01-22T01:12:14.417Z,2.50
2023-01-22T01:14:41.650Z,2.30
2023-01-22T01:17:12.101Z,2.80
2023-01-22T02:01:53.145Z,2.50
2023-01-22T02:12:12.024Z,2.50
2023-01-22T02:14:43.180Z,2.50
2023-01-22T02:17:14.474Z,2.40
2023-01-22T02:19:44.255Z,2.40
2023-01-22T02:22:19.569Z,2.40
2023-01-22T02:24:47.004Z,2.40
2023-01-22T02:27:14.192Z,2.30
2023-01-22T02:29:41.540Z,2.30
2023-01-22T02:32:10.795Z,2.40
2023-01-22T02:34:39.159Z,2.30
2023-01-22T02:37:06.419Z,2.30
2023-01-22T02:39:33.707Z,2.30
2023-01-22T02:42:05.323Z,2.30
2023-01-22T02:44:32.884Z,2.30
2023-01-22T02:47:02.262Z,3.40
2023-01-22T02:49:29.907Z,2.30
2023-01-22T02:51:57.548Z,2.30
2023-01-22T02:54:25.570Z,2.20
2023-01-22T02:56:52.951Z,2.30
2023-01-22T02:59:20.359Z,2.20
2023-01-22T03:01:48.091Z,2.20
2023-01-22T03:04:16.489Z,1.70
2023-01-22T03:06:46.195Z,2.40
2023-01-22T03:09:16.720Z,2.40
2023-01-22T03:11:46.070Z,2.20
2023-01-22T03:14:36.849Z,2.10
2023-01-22T03:17:23.142Z,2.20
2023-01-22T03:20:16.284Z,2.10
2023-01-22T03:23:04.325Z,2.10
2023-01-22T03:25:32.029Z,2.10
2023-01-22T03:28:08.787Z,2.20
2023-01-22T03:30:39.353Z,1.70
2023-01-22T03:33:10.410Z,2.10
2023-01-22T03:35:38.872Z,2.20
2023-01-22T03:38:15.345Z,2.10
2023-01-22T03:40:49.205Z,2.10
2023-01-22T03:43:16.920Z,2.10
2023-01-22T03:45:44.667Z,2.10
2023-01-22T03:48:15.369Z,2.10
2023-01-22T03:50:42.923Z,2.00
2023-01-22T03:53:14.766Z,2.10
2023-01-22T03:55:42.543Z,2.10
2023-01-22T03:58:10.635Z,2.10
2023-01-22T04:00:38.101Z,2.10
2023-01-22T04:03:10.038Z,2.10
2023-01-22T04:05:40.545Z,2.20
2023-01-22T04:08:08.211Z,2.10
2023-01-22T04:10:40.333Z,2.20
2023-01-22T04:13:08.192Z,2.20
2023-01-22T04:15:36.730Z,2.20
2023-01-22T04:18:16.100Z,2.10
2023-01-22T04:21:47.160Z,2.60
2023-01-22T04:24:15.896Z,2.40
2023-01-22T04:26:43.120Z,2.20
2023-01-22T04:29:13.182Z,2.20
2023-01-22T04:31:41.040Z,2.60
2023-01-22T04:34:08.570Z,2.40
2023-01-22T04:36:43.192Z,2.20
2023-01-22T04:39:15.506Z,2.30
2023-01-22T04:41:43.065Z,2.30
2023-01-22T04:44:10.534Z,2.20
2023-01-22T04:46:37.930Z,2.30
2023-01-22T04:49:05.915Z,2.30
2023-01-22T04:51:33.113Z,2.30
2023-01-22T04:54:00.494Z,2.30
2023-01-22T04:56:27.906Z,2.30
2023-01-22T04:58:55.490Z,2.30
2023-01-22T05:01:23.123Z,2.20
2023-01-22T05:03:51.060Z,2.30
2023-01-22T05:06:18.579Z,2.30
2023-01-22T05:08:47.896Z,2.30
2023-01-22T05:11:15.362Z,2.30
2023-01-22T05:13:49.742Z,2.30
2023-01-22T05:16:18.110Z,2.30
2023-01-22T05:18:45.379Z,2.40
2023-01-22T05:21:12.658Z,2.40
2023-01-22T05:23:40.453Z,2.40
2023-01-22T05:26:08.047Z,3.30
2023-01-22T05:28:40.650Z,2.40
2023-01-22T05:31:13.110Z,2.40
2023-01-22T05:33:49.447Z,2.40
2023-01-22T05:36:17.148Z,2.40
2023-01-22T05:38:46.695Z,2.40
2023-01-22T05:41:14.953Z,2.40
2023-01-22T05:43:42.360Z,2.40
2023-01-22T05:46:15.332Z,2.40
2023-01-22T05:49:11.330Z,1.50
2023-01-22T05:51:38.818Z,2.80
2023-01-22T05:54:06.908Z,2.30
2023-01-22T05:56:41.525Z,2.50
2023-01-22T05:59:08.970Z,2.50
2023-01-22T06:01:36.776Z,2.50
2023-01-22T06:04:04.437Z,2.50
2023-01-22T06:06:31.769Z,2.40
2023-01-22T06:08:59.876Z,2.50
2023-01-22T06:11:32.476Z,2.30
2023-01-22T06:13:59.810Z,2.50
2023-01-22T06:16:27.296Z,2.50
2023-01-22T06:19:11.379Z,2.50
2023-01-22T06:21:53.528Z,2.50
2023-01-22T06:24:26.611Z,2.50
2023-01-22T06:26:53.857Z,2.60
2023-01-22T06:29:25.379Z,2.50
2023-01-22T06:31:53.165Z,2.50
2023-01-22T06:34:21.346Z,2.50
2023-01-22T06:36:48.583Z,2.60
2023-01-22T06:39:15.815Z,2.50
2023-01-22T06:41:48.629Z,2.50
2023-01-22T06:44:18.887Z,2.50
2023-01-22T06:46:47.495Z,2.60
2023-01-22T06:49:34.663Z,2.60
2023-01-22T06:52:01.771Z,2.60
2023-01-22T06:54:28.959Z,2.70
2023-01-22T06:56:56.178Z,2.70
2023-01-22T06:59:24.755Z,2.70
2023-01-22T07:01:51.906Z,2.70
2023-01-22T07:04:19.111Z,2.70
2023-01-22T07:06:46.243Z,2.70
2023-01-22T07:09:13.300Z,2.70
2023-01-22T07:11:40.455Z,2.70
2023-01-22T07:14:08.343Z,2.80
2023-01-22T07:16:36.387Z,2.80
2023-01-22T07:19:03.719Z,2.80
2023-01-22T07:21:30.777Z,2.80
2023-01-22T07:23:57.973Z,2.90
2023-01-22T07:26:25.324Z,2.90
2023-01-22T07:28:52.504Z,2.90
2023-01-22T07:31:19.690Z,2.90
2023-01-22T07:33:47.132Z,2.90
2023-01-22T07:36:14.575Z,2.90
2023-01-22T07:39:06.388Z,2.50
2023-01-22T07:41:33.686Z,3.00
2023-01-22T07:44:00.771Z,3.00
2023-01-22T07:46:28.755Z,3.00
2023-01-22T07:48:55.974Z,3.00
2023-01-22T07:51:26.250Z,3.00
2023-01-22T07:53:53.756Z,3.00
2023-01-22T07:56:21.109Z,3.10
2023-01-22T07:58:48.495Z,3.10
2023-01-22T08:01:16.067Z,3.20
2023-01-22T08:03:43.433Z,3.50
2023-01-22T08:06:12.534Z,3.30
2023-01-22T08:08:40.099Z,3.40
2023-01-22T08:11:07.422Z,3.40
2023-01-22T08:13:34.886Z,3.30
2023-01-22T08:16:02.106Z,3.40
2023-01-22T08:18:29.436Z,3.40
2023-01-22T08:21:00.095Z,3.40
2023-01-22T08:23:27.677Z,3.50
2023-01-22T08:26:08.571Z,3.50
2023-01-22T08:28:39.023Z,2.50
2023-01-22T08:31:16.416Z,3.70
2023-01-22T08:33:50.005Z,3.80
2023-01-22T08:36:24.199Z,3.80
2023-01-22T08:38:52.028Z,3.70
2023-01-22T08:41:21.273Z,3.80
2023-01-22T08:43:49.548Z,3.70
2023-01-22T08:46:20.021Z,3.80
2023-01-22T08:48:50.433Z,3.70
2023-01-22T08:51:23.791Z,3.70
2023-01-22T08:53:51.595Z,3.80
2023-01-22T08:56:19.274Z,3.70
2023-01-22T08:58:52.482Z,3.60
2023-01-22T09:01:20.955Z,3.00
2023-01-22T09:03:49.653Z,3.70
2023-01-22T09:06:21.231Z,3.70
2023-01-22T09:08:50.235Z,3.70
2023-01-22T09:11:21.280Z,3.80
2023-01-22T09:13:49.155Z,3.80
2023-01-22T09:16:16.617Z,3.80
2023-01-22T09:18:44.384Z,3.80
2023-01-22T09:21:12.173Z,3.80
2023-01-22T09:23:41.128Z,3.80
2023-01-22T09:26:09.071Z,4.00
2023-01-22T09:28:36.567Z,3.80
2023-01-22T09:31:05.203Z,3.80
2023-01-22T09:33:34.802Z,4.90
2023-01-22T09:36:14.271Z,3.70
2023-01-22T09:38:42.801Z,3.70
2023-01-22T09:41:34.785Z,3.50
2023-01-22T09:44:21.169Z,3.70
2023-01-22T09:47:00.197Z,3.70
2023-01-22T09:49:39.324Z,3.90
2023-01-22T09:52:07.198Z,3.70
2023-01-22T09:55:00.811Z,3.70
2023-01-22T09:57:32.488Z,3.80
2023-01-22T10:00:00.611Z,3.50
2023-01-22T10:02:39.361Z,3.90
2023-01-22T10:05:28.066Z,3.90
2023-01-22T10:08:14.174Z,3.10
2023-01-22T10:10:41.964Z,3.40
2023-01-22T10:13:27.273Z,3.90
2023-01-22T10:15:56.265Z,3.80
2023-01-22T10:18:41.801Z,3.70
2023-01-22T10:21:17.605Z,3.90
2023-01-22T10:23:48.666Z,4.00
2023-01-22T10:26:25.356Z,4.00
2023-01-22T10:28:59.008Z,4.00
2023-01-22T10:31:35.975Z,4.10
2023-01-22T10:34:32.653Z,4.00
2023-01-22T10:37:17.060Z,3.90
2023-01-22T10:39:51.623Z,4.00
2023-01-22T10:42:23.798Z,4.00
2023-01-22T10:44:55.466Z,4.10
2023-01-22T10:47:27.568Z,3.10
2023-01-22T10:50:09.961Z,4.20
2023-01-22T10:52:43.042Z,4.10
2023-01-22T10:55:33.318Z,4.50
2023-01-22T10:58:07.368Z,4.00
2023-01-22T11:00:50.282Z,4.70
2023-01-22T11:03:28.668Z,4.60
2023-01-22T11:06:03.082Z,4.50
2023-01-22T11:08:41.452Z,3.80
2023-01-22T11:11:12.347Z,4.60
2023-01-22T11:13:43.084Z,4.50
2023-01-22T11:16:16.639Z,4.50
2023-01-22T11:18:50.163Z,4.50
2023-01-22T11:21:25.869Z,4.80
2023-01-22T11:23:53.704Z,4.70
2023-01-22T11:26:28.832Z,4.40
2023-01-22T11:29:04.966Z,4.60
2023-01-22T11:31:57.288Z,4.60
2023-01-22T11:34:59.317Z,4.70
2023-01-22T11:37:41.763Z,4.70
2023-01-22T11:40:30.383Z,4.70
2023-01-22T11:43:32.345Z,4.70
2023-01-22T11:46:27.195Z,4.60
2023-01-22T11:49:12.744Z,4.70
2023-01-22T11:51:58.523Z,4.20
2023-01-22T11:54:49.277Z,4.40
2023-01-22T11:57:37.388Z,4.50
2023-01-22T12:00:08.677Z,4.60
2023-01-22T12:03:20.178Z,4.50
2023-01-22T12:06:13.104Z,4.60
2023-01-22T12:09:04.827Z,4.70
2023-01-22T12:12:26.121Z,4.70
2023-01-22T12:15:02.135Z,3.70
2023-01-22T12:18:08.283Z,4.50
2023-01-22T12:20:49.512Z,4.60
2023-01-22T12:23:21.837Z,4.50
2023-01-22T12:25:53.903Z,4.60
2023-01-22T12:28:50.848Z,4.90
2023-01-22T12:31:37.899Z,4.80
2023-01-22T12:34:18.418Z,4.10
2023-01-22T12:36:47.034Z,4.80
2023-01-22T12:39:31.124Z,4.80
2023-01-22T12:42:04.445Z,4.90
2023-01-22T12:44:49.833Z,4.80
2023-01-22T12:47:22.567Z,4.90
2023-01-22T12:49:52.193Z,4.80
2023-01-22T12:52:39.271Z,4.80
2023-01-22T12:55:32.088Z,4.80
2023-01-22T12:58:00.199Z,4.80
2023-01-22T13:00:35.041Z,4.90
2023-01-22T13:03:33.291Z,4.90
2023-01-22T13:06:04.054Z,5.00
2023-01-22T13:08:42.280Z,4.80
2023-01-22T13:11:26.752Z,4.00
2023-01-22T13:14:15.039Z,4.90
2023-01-22T13:16:57.145Z,4.90
2023-01-22T13:19:29.582Z,4.90
2023-01-22T13:22:01.776Z,5.00
2023-01-22T13:24:29.869Z,4.90
2023-01-22T13:27:00.838Z,4.90
2023-01-22T13:29:36.905Z,5.00
2023-01-22T13:32:16.648Z,5.30
2023-01-22T13:34:44.692Z,5.00
2023-01-22T13:37:23.783Z,4.90
2023-01-22T13:39:52.654Z,5.00
2023-01-22T13:42:22.366Z,4.90
2023-01-22T13:44:52.223Z,4.70
2023-01-22T13:47:35.607Z,5.00
2023-01-22T13:50:04.240Z,5.00
2023-01-22T13:52:34.660Z,5.00
2023-01-22T13:55:07.037Z,5.00
2023-01-22T13:57:34.977Z,5.00
2023-01-22T14:00:04.288Z,4.80
2023-01-22T14:02:36.307Z,5.10
2023-01-22T14:05:06.593Z,4.90
2023-01-22T14:07:41.387Z,5.00
2023-01-22T14:10:23.666Z,4.90
2023-01-22T14:13:06.311Z,5.00
2023-01-22T14:15:34.926Z,5.00
2023-01-22T14:18:13.702Z,4.90
2023-01-22T14:20:42.702Z,4.90
2023-01-22T14:23:11.047Z,4.90
2023-01-22T14:25:41.992Z,4.30
2023-01-22T14:28:10.954Z,4.90
2023-01-22T14:30:38.954Z,5.00
2023-01-22T14:33:07.185Z,4.90
2023-01-22T14:35:35.383Z,5.00
2023-01-22T14:38:04.468Z,4.90
2023-01-22T14:40:33.394Z,4.90
2023-01-22T14:43:02.172Z,4.90
2023-01-22T14:45:30.917Z,4.90
2023-01-22T14:48:01.237Z,4.90
2023-01-22T14:50:29.169Z,4.90
2023-01-22T14:52:57.308Z,4.90
2023-01-22T14:55:26.214Z,4.90
2023-01-22T14:57:54.957Z,4.80
2023-01-22T15:00:23.074Z,4.90
2023-01-22T15:02:56.071Z,4.90
2023-01-22T15:05:24.288Z,4.90
2023-01-22T15:07:52.874Z,4.90
2023-01-22T15:10:21.572Z,5.50
2023-01-22T15:12:52.216Z,4.80
2023-01-22T15:15:23.545Z,4.90
2023-01-22T15:17:52.649Z,5.10
2023-01-22T15:20:24.304Z,4.90
2023-01-22T15:22:52.681Z,4.90
2023-01-22T15:25:22.038Z,4.80
2023-01-22T15:27:50.323Z,4.80
2023-01-22T15:30:18.650Z,4.80
2023-01-22T15:32:46.774Z,4.80
2023-01-22T15:35:14.354Z,4.80
2023-01-22T15:37:42.198Z,4.80
2023-01-22T15:40:11.165Z,4.80
2023-01-22T15:42:39.142Z,5.00
2023-01-22T15:45:08.380Z,4.80
2023-01-22T15:47:36.544Z,4.60
2023-01-22T15:50:05.314Z,4.80
2023-01-22T15:52:35.346Z,4.80
2023-01-22T15:55:04.049Z,4.50
2023-01-22T15:57:32.803Z,4.90
2023-01-22T16:00:01.002Z,4.70
2023-01-22T16:02:29.234Z,4.90
2023-01-22T16:04:58.823Z,4.80
2023-01-22T16:07:29.501Z,4.80
2023-01-22T16:09:58.496Z,4.90
2023-01-22T16:12:26.763Z,4.80
2023-01-22T16:14:55.214Z,4.70
2023-01-22T16:17:23.476Z,4.60
2023-01-22T16:19:52.610Z,4.00
2023-01-22T16:22:20.546Z,4.80
2023-01-22T16:24:48.671Z,4.90
2023-01-22T16:27:30.084Z,3.90
2023-01-22T16:29:58.925Z,4.80
2023-01-22T16:32:28.848Z,4.80
2023-01-22T16:34:57.475Z,4.80
2023-01-22T16:37:28.613Z,4.80
2023-01-22T16:39:57.363Z,4.80
2023-01-22T16:42:25.516Z,4.00
2023-01-22T16:44:54.372Z,4.80
2023-01-22T16:47:23.081Z,4.40
2023-01-22T16:49:52.610Z,4.80
2023-01-22T16:52:24.401Z,4.80
2023-01-22T16:54:55.695Z,4.80
2023-01-22T16:57:26.169Z,4.80
2023-01-22T16:59:55.260Z,4.80
2023-01-22T17:02:24.273Z,4.80
2023-01-22T17:04:58.115Z,5.00
2023-01-22T17:07:33.627Z,4.80
2023-01-22T17:10:03.065Z,4.80
2023-01-22T17:12:36.025Z,4.10
2023-01-22T17:15:05.561Z,4.90
2023-01-22T17:17:34.368Z,4.80
2023-01-22T17:20:03.379Z,4.80
2023-01-22T17:22:33.475Z,4.80
2023-01-22T17:25:02.184Z,4.80
2023-01-22T17:27:32.417Z,4.80
2023-01-22T17:30:01.037Z,4.80
2023-01-22T17:32:29.510Z,4.80
2023-01-22T17:34:59.803Z,5.40
2023-01-22T17:37:31.147Z,4.80
2023-01-22T17:40:06.641Z,4.90
2023-01-22T17:42:36.703Z,4.70
2023-01-22T17:45:09.698Z,4.80
2023-01-22T17:47:39.939Z,4.80
2023-01-22T17:50:09.381Z,4.80
2023-01-22T17:52:38.585Z,4.80
2023-01-22T17:55:10.583Z,4.80
2023-01-22T17:57:42.864Z,4.70
2023-01-22T18:00:14.501Z,4.90
2023-01-22T18:02:46.852Z,4.70
2023-01-22T18:05:19.243Z,3.90
2023-01-22T18:07:48.888Z,4.80
2023-01-22T18:10:17.704Z,4.80
2023-01-22T18:12:46.855Z,5.20
2023-01-22T18:15:16.147Z,4.70
2023-01-22T18:17:48.601Z,4.30
2023-01-22T18:20:37.771Z,4.70
2023-01-22T18:23:06.035Z,4.60
2023-01-22T18:26:04.577Z,4.60
2023-01-22T18:28:34.088Z,4.70
2023-01-22T18:31:14.613Z,4.80
2023-01-22T18:33:49.861Z,4.70
2023-01-22T18:36:23.202Z,4.70
2023-01-22T18:38:57.859Z,4.60
2023-01-22T18:41:31.501Z,4.70
2023-01-22T18:44:03.310Z,4.60
2023-01-22T18:46:36.574Z,4.50
2023-01-22T18:49:08.303Z,4.50
2023-01-22T18:51:37.216Z,4.60
2023-01-22T18:54:09.040Z,4.20
2023-01-22T18:56:40.670Z,4.60
2023-01-22T18:59:17.246Z,4.60
2023-01-22T19:01:51.944Z,4.60
2023-01-22T19:04:24.033Z,4.60
2023-01-22T19:06:56.017Z,4.60
2023-01-22T19:09:27.351Z,5.60
2023-01-22T19:11:59.118Z,4.50
2023-01-22T19:14:29.046Z,4.40
2023-01-22T19:16:57.735Z,4.20
2023-01-22T19:19:30.000Z,4.80
2023-01-22T19:21:58.317Z,4.40
2023-01-22T19:24:28.947Z,4.30
2023-01-22T19:26:58.374Z,4.40
2023-01-22T19:29:27.903Z,3.80
2023-01-22T19:31:58.365Z,4.30
2023-01-22T19:34:30.376Z,4.30
2023-01-22T19:37:06.676Z,4.30
2023-01-22T19:39:41.663Z,3.80
2023-01-22T19:42:09.999Z,4.10
2023-01-22T19:45:00.543Z,4.10
2023-01-22T19:47:31.490Z,4.20
2023-01-22T19:50:01.441Z,4.10
2023-01-22T19:52:30.625Z,4.10
2023-01-22T19:55:00.255Z,4.10
2023-01-22T19:57:30.851Z,4.20
2023-01-22T20:00:00.318Z,3.90
2023-01-22T20:02:29.549Z,4.00
2023-01-22T20:04:58.027Z,4.10
2023-01-22T20:07:29.092Z,4.10
2023-01-22T20:09:58.767Z,4.20
2023-01-22T20:12:27.713Z,3.90
2023-01-22T20:14:57.756Z,3.80
2023-01-22T20:17:46.410Z,3.90
2023-01-22T20:20:14.531Z,3.80
2023-01-22T20:22:42.785Z,3.80
2023-01-22T20:25:12.721Z,3.80
2023-01-22T20:27:40.647Z,3.80
2023-01-22T20:30:11.328Z,3.80
2023-01-22T20:32:40.318Z,3.70
2023-01-22T20:35:10.445Z,3.70
2023-01-22T20:37:40.474Z,3.00
2023-01-22T20:40:10.050Z,3.80
2023-01-22T20:42:38.643Z,3.70
2023-01-22T20:45:11.404Z,3.70
2023-01-22T20:47:39.481Z,3.70
2023-01-22T20:50:08.154Z,3.70
2023-01-22T20:52:38.763Z,3.60
2023-01-22T20:55:08.143Z,3.70
2023-01-22T20:57:37.501Z,3.50
2023-01-22T21:00:07.521Z,3.50
2023-01-22T21:02:36.217Z,3.60
2023-01-22T21:05:05.205Z,3.70
2023-01-22T21:07:33.752Z,3.50
2023-01-22T21:10:02.692Z,3.40
2023-01-22T21:12:31.077Z,3.50
2023-01-22T21:15:00.509Z,3.40
2023-01-22T21:17:29.281Z,3.50
2023-01-22T21:19:59.237Z,3.40
2023-01-22T21:22:28.067Z,3.40
2023-01-22T21:24:58.348Z,3.40
2023-01-22T21:27:26.279Z,3.40
2023-01-22T21:29:56.673Z,3.50
2023-01-22T21:32:33.819Z,3.40
2023-01-22T21:35:10.444Z,3.80
2023-01-22T21:37:38.354Z,3.20
2023-01-22T21:40:09.254Z,3.60
2023-01-22T21:42:58.845Z,3.50
2023-01-22T21:45:49.476Z,3.30
2023-01-22T21:48:18.003Z,3.50
2023-01-22T21:50:45.641Z,3.50
2023-01-22T21:53:13.618Z,3.50
2023-01-22T21:55:56.510Z,3.50
2023-01-22T21:58:24.367Z,3.50
2023-01-22T22:00:55.088Z,3.50
2023-01-22T22:03:28.037Z,3.60
2023-01-22T22:06:02.158Z,3.40
2023-01-22T22:08:30.216Z,3.50
2023-01-22T22:10:57.947Z,3.90
2023-01-22T22:13:25.455Z,3.00
2023-01-22T22:15:53.035Z,3.50
2023-01-22T22:18:20.740Z,3.50
2023-01-22T22:20:48.264Z,3.50
2023-01-22T22:23:17.541Z,3.60
2023-01-22T22:25:49.741Z,4.00
2023-01-22T22:28:18.493Z,3.60
2023-01-22T22:30:46.381Z,3.60
2023-01-22T22:33:13.815Z,3.40
2023-01-22T22:35:44.281Z,2.70
2023-01-22T22:38:11.884Z,3.50
2023-01-22T22:40:42.313Z,3.50
2023-01-22T22:43:10.066Z,3.50
2023-01-22T22:45:40.706Z,3.50
2023-01-22T22:48:08.361Z,3.50
2023-01-22T22:50:35.791Z,3.60
2023-01-22T22:53:07.370Z,3.50
2023-01-22T22:55:34.932Z,3.50
2023-01-22T22:58:02.367Z,3.30
2023-01-22T23:00:30.113Z,3.60
2023-01-22T23:02:58.669Z,3.50
2023-01-22T23:05:26.460Z,3.50
2023-01-22T23:07:53.853Z,3.70
2023-01-22T23:10:30.642Z,3.50
2023-01-22T23:13:03.052Z,3.50
2023-01-22T23:15:31.214Z,3.50
2023-01-22T23:18:23.920Z,3.00
2023-01-22T23:20:51.430Z,3.30
2023-01-22T23:23:21.502Z,3.50
2023-01-22T23:25:49.283Z,3.80
2023-01-22T23:28:16.661Z,3.50
2023-01-22T23:30:47.186Z,3.50
2023-01-22T23:33:14.952Z,3.50
2023-01-22T23:35:44.616Z,3.50
2023-01-22T23:38:12.047Z,3.50
2023-01-22T23:40:39.610Z,3.30
2023-01-22T23:43:07.394Z,3.40
2023-01-22T23:45:39.720Z,3.40
2023-01-22T23:48:07.306Z,3.40
2023-01-22T23:50:35.059Z,3.40
2023-01-22T23:53:07.597Z,3.40
2023-01-22T23:55:35.139Z,3.50
2023-01-22T23:58:08.025Z,3.40
